Pagrindinis puslapis
METAR-TAF:

METAR-TAF

Oro uostai :

Sarajevas, Bosnija ir Hercegovina

platuma: 43-49N, ilguma: 018-20E, Aukštis: 511 m

Dabartinis oras

Ataskaita buvo paskelbta 11 minutes, ne 18:30 UTC
Vėjas 3 kt iš Pietų/Pietryčių, svyruoja nuo Rytų/Pietryčių ir Pietvakarių
Temperatūra 12°C
Drėgmė 71%
Slėgis 1024 hPa
Matomumas 10 km arba daugiau
Su prošvaistėmis ne aukštis 6500 ft

METAR: LQSA 191830Z 16003KT 110V220 9999 BKN065 12/07 Q1024

Laikas: 20:41 (18:41 UTC)

Prognozė

Ataskaita buvo paskelbta 1 valandą ir 41 minutes, ne 17:00 UTC
Prognozė galioja nuo 19 metu 18 UTC su 20 metu 18 UTC
Vėjas 5 kt iš Rytų/Šiaurės Rytų
Matomumas 10 km arba daugiau
Su prošvaistėmis ne aukštis 5500 ft
Tikimybė 40% :
Laikinai
nuo 20 metu 03 UTC su 20 metu 07 UTC
Matomumas: 4000 m
rūkana

TAF: LQSA 191700Z 1918/2018 06005KT 9999 BKN055 TX18/2013Z TN04/2003Z PROB40 TEMPO 2003/2007 4000 BR

Orai ataskaitas ir orų prognozės (METAR, TAF).

turimą stotys yra geltonos ir raudonos taškus žemėlapyje.

Perkelti pele per norėdami pamatyti stoties vardą.

Tada spustelėkite, norėdami matyti oro stebėjimo ir prognozės.

Norėdami pakeisti žemėlapį: spustelėkite ant žalios mygtukų su juodo kryžiaus žemyn,; žalią mygtuką su brūkšneliu, jei norite nutolinti; arba žalių rodyklių gretimoms žemėlapius.


METAR-TAF: